Aeroporto :
LOGIN :

Iscrizione | Disclaimer

   EN    FR    IT 

 










Sommario :    VFR   VFR Marginale   IFR   IFR Intensivo   IFR Molto Intensivo
Visibilità : 
Base nubi : 
>= 8 km
>= 3000ft
5 / 8 km
1000 / 3000 ft
1500m / 5 km
500 / 1000 ft
800 / 1500m
200 / 500 ft
< 800m
< 200 ft
Simboli :   Temporali  Nebbia  Neve Forte  Precipitazioni Forti  Vento > 20 kt
SIGMETs :   Varie  Temporali  Ghiacco  Turbolenza  Onda orograficha  Ceneri Vulcaniche






- Altitudine del aeroporto : 3368 ft


LSGC - Les Eplatures

ULTIMO METAR :
  • 031950Z AUTO VRB02KT 9999 //////TCU 17/15 Q1023

METARs OBSOLETI :
  • 031920Z AUTO 27004KT 250V310 9999 SCT///CB 18/15 Q1022 RETSRA
  • 031850Z AUTO VRB03KT 9999 -TSRA BKN///CB 18/15 Q1021 RETS
  • 031820Z AUTO VRB01KT 9999 FEW050CB 21/14 Q1022
  • 030520Z VRB01KT CAVOK 13/10 Q1023
  • 031750Z AUTO 31003KT 270V360 9999 //////TCU 22/12 Q1022
  • 031720Z VRB03KT 9999 SCT080TCU 23/13 Q1022

TAF TAF LSGC
Valido dal 03 a 15 ore il 04 a 00 ore UTC


031425Z 0315/0324 26005KT CAVOK
BECMG 0322/0324 9999 SCT055TCU



MetMap, La meteo Aeronautica in un colpo d'occhio ! - Copyright ORBIFLY Dicembre 2007 - Disclaimer

ORBIFLY MET'MAP TEAM :

Programmazione e sviluppo : Alexandra Zaïnal
Concezione : Baudouin d'Aumeries
Supporto tecnico e logistico : Manuel Goepfert
Aiuto : Marc-Olivier Méhu
Aiuto per la traduzione : Arnaldo La Scala




FONTI E CREDITI :

   NOAA